createdAt,value
2022-08-21T00:01:44.385Z,79.40
2022-08-21T00:04:14.522Z,80.16
2022-08-21T00:06:48.646Z,80.43
2022-08-21T00:09:16.630Z,80.74
2022-08-21T00:11:44.122Z,80.14
2022-08-21T00:14:11.696Z,80.74
2022-08-21T00:16:39.664Z,81.00
2022-08-21T00:19:07.300Z,81.05
2022-08-21T00:21:35.500Z,80.66
2022-08-21T00:24:03.007Z,79.99
2022-08-21T00:26:30.328Z,81.24
2022-08-21T00:28:58.387Z,80.85
2022-08-21T00:31:26.462Z,82.17
2022-08-21T00:34:00.639Z,82.38
2022-08-21T00:36:29.136Z,82.55
2022-08-21T00:38:56.964Z,82.03
2022-08-21T00:41:36.983Z,81.47
2022-08-21T00:44:07.996Z,82.14
2022-08-21T00:46:35.968Z,81.33
2022-08-21T00:49:03.779Z,81.55
2022-08-21T00:51:42.711Z,82.47
2022-08-21T00:54:18.087Z,81.86
2022-08-21T00:56:47.930Z,82.27
2022-08-21T00:59:17.309Z,83.59
2022-08-21T01:01:44.667Z,82.57
2022-08-21T01:04:12.492Z,82.92
2022-08-21T01:06:39.901Z,83.16
2022-08-21T01:09:07.172Z,83.88
2022-08-21T01:11:34.457Z,83.32
2022-08-21T01:14:01.941Z,83.18
2022-08-21T01:16:29.279Z,83.30
2022-08-21T01:18:56.646Z,82.84
2022-08-21T01:21:28.241Z,82.98
2022-08-21T01:23:56.486Z,82.63
2022-08-21T01:26:31.212Z,82.77
2022-08-21T01:29:26.608Z,83.48
2022-08-21T01:31:53.911Z,82.78
2022-08-21T01:34:21.542Z,83.61
2022-08-21T01:36:49.222Z,83.20
2022-08-21T01:39:16.896Z,84.06
2022-08-21T01:41:44.164Z,83.90
2022-08-21T01:44:12.173Z,84.21
2022-08-21T01:46:39.486Z,84.61
2022-08-21T01:49:06.847Z,83.55
2022-08-21T01:51:34.168Z,84.34
2022-08-21T01:54:01.443Z,83.95
2022-08-21T01:56:28.982Z,83.90
2022-08-21T01:58:56.344Z,83.96
2022-08-21T02:01:23.763Z,84.38
2022-08-21T02:03:51.100Z,84.89
2022-08-21T02:06:19.062Z,84.88
2022-08-21T02:08:47.277Z,84.93
2022-08-21T02:11:14.805Z,84.71
2022-08-21T02:13:42.058Z,84.50
2022-08-21T02:16:09.621Z,85.14
2022-08-21T02:18:37.077Z,84.52
2022-08-21T02:21:04.636Z,84.80
2022-08-21T02:23:32.226Z,84.63
2022-08-21T02:26:00.181Z,84.54
2022-08-21T02:28:27.833Z,84.66
2022-08-21T02:30:55.492Z,84.72
2022-08-21T02:33:23.108Z,84.75
2022-08-21T02:35:50.917Z,84.76
2022-08-21T02:38:23.141Z,84.14
2022-08-21T02:40:51.459Z,84.24
2022-08-21T02:43:19.639Z,84.02
2022-08-21T02:45:47.130Z,85.05
2022-08-21T02:48:16.646Z,85.13
2022-08-21T02:50:49.234Z,84.15
2022-08-21T02:53:17.638Z,85.63
2022-08-21T02:55:46.038Z,85.98
2022-08-21T02:58:13.851Z,86.10
2022-08-21T03:00:41.159Z,85.33
2022-08-21T03:03:08.518Z,84.96
2022-08-21T03:05:36.178Z,85.54
2022-08-21T03:08:03.885Z,85.63
2022-08-21T03:10:32.109Z,84.39
2022-08-21T03:12:59.547Z,83.90
2022-08-21T03:15:27.432Z,84.94
2022-08-21T03:17:55.593Z,84.61
2022-08-21T03:20:24.803Z,84.16
2022-08-21T03:22:53.542Z,83.80
2022-08-21T03:25:28.323Z,84.19
2022-08-21T03:28:19.418Z,84.22
2022-08-21T03:30:47.634Z,84.53
2022-08-21T03:33:15.641Z,84.73
2022-08-21T03:35:47.776Z,84.49
2022-08-21T03:38:15.027Z,84.50
2022-08-21T03:40:43.212Z,84.49
2022-08-21T03:43:10.837Z,84.21
2022-08-21T03:45:38.657Z,84.37
2022-08-21T03:48:06.626Z,84.17
2022-08-21T03:50:40.994Z,84.76
2022-08-21T03:53:16.469Z,84.04
2022-08-21T03:55:49.407Z,84.62
2022-08-21T03:58:18.008Z,84.68
2022-08-21T04:00:50.195Z,84.97
2022-08-21T04:03:17.776Z,84.92
2022-08-21T04:05:46.860Z,83.72
2022-08-21T04:08:15.415Z,83.31
2022-08-21T04:10:43.435Z,84.57
2022-08-21T04:13:13.209Z,84.15
2022-08-21T04:15:41.794Z,83.85
2022-08-21T04:18:09.534Z,84.46
2022-08-21T04:20:37.549Z,82.79
2022-08-21T04:23:04.891Z,83.72
2022-08-21T04:25:32.789Z,83.52
2022-08-21T04:28:00.121Z,84.60
2022-08-21T04:30:28.777Z,84.25
2022-08-21T04:32:56.909Z,82.56
2022-08-21T04:35:24.954Z,82.71
2022-08-21T04:37:52.306Z,82.47
2022-08-21T04:40:20.136Z,83.07
2022-08-21T04:42:53.367Z,83.59
2022-08-21T04:45:23.645Z,82.16
2022-08-21T04:47:55.527Z,83.20
2022-08-21T04:50:29.582Z,81.42
2022-08-21T04:52:57.003Z,81.83
2022-08-21T04:55:24.674Z,81.38
2022-08-21T04:57:54.522Z,81.37
2022-08-21T05:00:21.988Z,80.90
2022-08-21T05:02:49.756Z,82.36
2022-08-21T05:05:17.174Z,81.66
2022-08-21T05:07:45.675Z,81.83
2022-08-21T05:10:14.861Z,81.80
2022-08-21T05:12:43.044Z,80.58
2022-08-21T05:15:13.273Z,81.29
2022-08-21T05:17:42.041Z,80.80
2022-08-21T05:20:10.791Z,81.61
2022-08-21T05:22:38.770Z,81.91
2022-08-21T05:25:10.202Z,79.44
2022-08-21T05:27:42.973Z,79.52
2022-08-21T05:30:11.024Z,79.25
2022-08-21T05:32:39.012Z,80.21
2022-08-21T05:35:06.911Z,79.25
2022-08-21T05:37:35.097Z,79.09
2022-08-21T05:40:20.257Z,78.99
2022-08-21T05:42:55.393Z,78.64
2022-08-21T05:45:41.309Z,79.40
2022-08-21T05:48:13.167Z,78.01
2022-08-21T05:50:40.576Z,79.23
2022-08-21T05:53:08.085Z,78.66
2022-08-21T05:55:40.294Z,78.36
2022-08-21T05:58:10.195Z,78.89
2022-08-21T06:00:37.574Z,78.42
2022-08-21T06:03:05.146Z,78.87
2022-08-21T06:05:37.399Z,77.80
2022-08-21T06:08:05.307Z,79.85
2022-08-21T06:10:32.768Z,79.25
2022-08-21T06:13:00.375Z,78.54
2022-08-21T06:15:27.786Z,78.32
2022-08-21T06:17:55.204Z,78.31
2022-08-21T06:20:22.735Z,77.69
2022-08-21T06:22:50.144Z,77.35
2022-08-21T06:25:17.659Z,76.16
2022-08-21T06:27:45.099Z,75.73
2022-08-21T06:30:12.731Z,75.47
2022-08-21T06:32:40.690Z,75.05
2022-08-21T06:35:08.317Z,74.12
2022-08-21T06:37:35.594Z,75.22
2022-08-21T06:40:04.977Z,73.81
2022-08-21T06:42:32.671Z,73.87
2022-08-21T06:44:59.951Z,72.95
2022-08-21T06:47:27.234Z,72.49
2022-08-21T06:49:54.505Z,72.50
2022-08-21T06:52:21.777Z,71.50
2022-08-21T06:54:49.185Z,71.95
2022-08-21T06:57:16.483Z,71.73
2022-08-21T06:59:43.765Z,72.26
2022-08-21T07:02:11.165Z,72.37
2022-08-21T07:04:38.419Z,71.07
2022-08-21T07:07:05.954Z,70.24
2022-08-21T07:09:34.072Z,71.28
2022-08-21T07:12:01.746Z,72.21
2022-08-21T07:14:29.086Z,70.51
2022-08-21T07:16:56.875Z,71.12
2022-08-21T07:19:24.655Z,69.51
2022-08-21T07:21:52.085Z,69.11
2022-08-21T07:24:19.538Z,68.10
2022-08-21T07:26:46.831Z,67.75
2022-08-21T07:29:14.256Z,67.88
2022-08-21T07:31:41.619Z,67.69
2022-08-21T07:34:09.367Z,66.95
2022-08-21T07:36:37.693Z,66.85
2022-08-21T07:39:06.553Z,66.23
2022-08-21T07:41:35.417Z,64.68
2022-08-21T07:44:03.111Z,66.38
2022-08-21T07:46:30.498Z,67.08
2022-08-21T07:48:57.791Z,65.00
2022-08-21T07:51:27.905Z,64.11
2022-08-21T07:53:56.510Z,67.02
2022-08-21T07:56:23.826Z,66.65
2022-08-21T07:58:51.287Z,64.09
2022-08-21T08:01:19.203Z,63.58
2022-08-21T08:03:47.287Z,62.07
2022-08-21T08:06:14.966Z,63.43
2022-08-21T08:08:43.462Z,61.83
2022-08-21T08:11:16.137Z,62.15
2022-08-21T08:13:47.814Z,60.28
2022-08-21T08:16:15.546Z,63.68
2022-08-21T08:18:43.246Z,61.80
2022-08-21T08:21:11.312Z,58.56
2022-08-21T08:23:39.729Z,59.72
2022-08-21T08:26:07.423Z,60.43
2022-08-21T08:28:34.783Z,58.88
2022-08-21T08:31:02.131Z,58.85
2022-08-21T08:33:29.457Z,59.08
2022-08-21T08:35:57.104Z,55.84
2022-08-21T08:38:25.067Z,56.68
2022-08-21T08:41:04.945Z,53.53
2022-08-21T08:43:33.359Z,54.11
2022-08-21T08:46:03.804Z,53.45
2022-08-21T08:48:58.205Z,55.00
2022-08-21T08:51:32.414Z,49.69
2022-08-21T08:54:05.651Z,52.00
2022-08-21T08:56:34.690Z,48.62
2022-08-21T08:59:08.326Z,48.45
2022-08-21T09:01:39.042Z,45.57
2022-08-21T09:04:06.741Z,44.24
2022-08-21T09:06:51.876Z,43.82
2022-08-21T09:09:25.311Z,41.25
2022-08-21T09:12:07.487Z,39.00
2022-08-21T09:14:50.114Z,35.48
2022-08-21T09:17:38.559Z,36.39
2022-08-21T09:20:30.575Z,34.85
2022-08-21T09:23:32.515Z,33.11
2022-08-21T09:26:12.986Z,32.24
2022-08-21T09:28:42.193Z,32.87
2022-08-21T09:31:17.768Z,31.40
2022-08-21T09:33:45.142Z,31.38
2022-08-21T09:36:12.491Z,31.99
2022-08-21T09:38:39.787Z,30.62
2022-08-21T09:41:09.795Z,30.68
2022-08-21T09:43:37.826Z,30.77
2022-08-21T09:46:13.555Z,31.45
2022-08-21T09:48:42.915Z,31.30
2022-08-21T09:51:21.520Z,31.12
2022-08-21T09:54:19.716Z,30.43
2022-08-21T09:57:28.302Z,29.90
2022-08-21T09:59:56.095Z,29.49
2022-08-21T10:02:29.252Z,31.23
2022-08-21T10:05:17.331Z,32.00
2022-08-21T10:07:44.741Z,30.43
2022-08-21T10:10:31.374Z,30.43
2022-08-21T10:13:07.590Z,33.08
2022-08-21T10:15:40.959Z,34.05
2022-08-21T10:18:16.842Z,36.59
2022-08-21T10:20:59.242Z,36.73
2022-08-21T10:23:37.352Z,37.43
2022-08-21T10:26:14.542Z,35.54
2022-08-21T10:29:16.363Z,33.67
2022-08-21T10:31:51.170Z,31.83
2022-08-21T10:34:38.179Z,32.15
2022-08-21T10:37:19.786Z,32.38
2022-08-21T10:40:12.084Z,31.33
2022-08-21T10:42:42.914Z,30.38
2022-08-21T10:45:19.842Z,31.58
2022-08-21T10:47:58.436Z,31.28
2022-08-21T10:50:33.029Z,30.74
2022-08-21T10:53:06.361Z,30.85
2022-08-21T10:55:44.499Z,31.02
2022-08-21T10:58:15.350Z,29.93
2022-08-21T11:01:02.159Z,29.70
2022-08-21T11:03:44.805Z,29.21
2022-08-21T11:06:20.490Z,29.61
2022-08-21T11:08:52.320Z,29.32
2022-08-21T11:11:35.770Z,28.90
2022-08-21T11:14:17.050Z,28.72
2022-08-21T11:16:59.615Z,28.56
2022-08-21T11:19:31.617Z,27.84
2022-08-21T11:22:29.851Z,28.84
2022-08-21T11:25:12.267Z,27.95
2022-08-21T11:27:46.214Z,27.94
2022-08-21T11:30:14.246Z,27.91
2022-08-21T11:32:58.710Z,28.84
2022-08-21T11:35:52.422Z,28.15
2022-08-21T11:38:36.380Z,29.31
2022-08-21T11:41:19.288Z,27.88
2022-08-21T11:43:54.391Z,29.34
2022-08-21T11:46:37.458Z,28.18
2022-08-21T11:49:19.626Z,27.48
2022-08-21T11:52:11.178Z,27.76
2022-08-21T11:54:44.420Z,28.30
2022-08-21T11:57:33.599Z,28.51
2022-08-21T12:00:12.089Z,28.07
2022-08-21T12:02:44.468Z,27.84
2022-08-21T12:05:23.041Z,27.73
2022-08-21T12:08:13.633Z,27.54
2022-08-21T12:10:48.567Z,27.00
2022-08-21T12:13:39.803Z,27.29
2022-08-21T12:16:13.631Z,27.61
2022-08-21T12:18:42.241Z,26.96
2022-08-21T12:21:20.880Z,27.26
2022-08-21T12:24:14.275Z,27.34
2022-08-21T12:26:56.270Z,27.16
2022-08-21T12:29:25.265Z,27.55
2022-08-21T12:32:11.891Z,27.81
2022-08-21T12:35:06.118Z,28.46
2022-08-21T12:37:45.388Z,28.06
2022-08-21T12:40:22.196Z,28.28
2022-08-21T12:42:58.699Z,28.13
2022-08-21T12:45:33.807Z,28.07
2022-08-21T12:48:12.508Z,27.44
2022-08-21T12:50:48.757Z,28.23
2022-08-21T12:53:29.169Z,26.40
2022-08-21T12:56:02.258Z,26.44
2022-08-21T12:58:29.917Z,26.10
2022-08-21T13:01:05.506Z,25.97
2022-08-21T13:03:34.746Z,26.29
2022-08-21T13:06:02.558Z,27.26
2022-08-21T13:08:31.227Z,26.52
2022-08-21T13:11:13.564Z,27.21
2022-08-21T13:13:46.798Z,27.01
2022-08-21T13:16:14.930Z,27.46
2022-08-21T13:18:54.826Z,27.48
2022-08-21T13:21:28.986Z,27.67
2022-08-21T13:24:31.759Z,27.21
2022-08-21T13:26:57.690Z,26.48
2022-08-21T13:29:29.265Z,26.40
2022-08-21T13:32:03.606Z,27.23
2022-08-21T13:34:34.780Z,26.65
2022-08-21T13:37:05.450Z,27.76
2022-08-21T13:39:34.129Z,27.55
2022-08-21T13:42:03.055Z,26.79
2022-08-21T13:44:44.860Z,27.44
2022-08-21T13:47:14.525Z,27.10
2022-08-21T13:49:46.476Z,28.17
2022-08-21T13:52:27.190Z,28.30
2022-08-21T13:54:55.600Z,28.63
2022-08-21T13:57:34.041Z,28.44
2022-08-21T14:00:14.856Z,29.47
2022-08-21T14:02:43.607Z,29.81
2022-08-21T14:05:44.508Z,29.40
2022-08-21T14:08:13.512Z,28.90
2022-08-21T14:10:46.063Z,28.42
2022-08-21T14:13:24.243Z,28.17
2022-08-21T14:16:02.940Z,29.14
2022-08-21T14:18:30.326Z,29.39
2022-08-21T14:21:08.044Z,29.32
2022-08-21T14:23:35.527Z,28.69
2022-08-21T14:26:04.323Z,29.36
2022-08-21T14:28:36.573Z,28.88
2022-08-21T14:31:20.464Z,29.21
2022-08-21T14:33:47.933Z,29.50
2022-08-21T14:36:15.374Z,29.16
2022-08-21T14:38:42.699Z,29.17
2022-08-21T14:41:24.828Z,29.54
2022-08-21T14:43:59.845Z,30.20
2022-08-21T14:46:35.758Z,30.50
2022-08-21T14:49:04.171Z,29.95
2022-08-21T14:51:31.842Z,30.42
2022-08-21T14:53:59.271Z,30.73
2022-08-21T14:56:26.831Z,30.51
2022-08-21T14:58:54.294Z,31.26
2022-08-21T15:01:22.254Z,31.53
2022-08-21T15:03:49.785Z,32.96
2022-08-21T15:06:18.645Z,33.67
2022-08-21T15:08:46.003Z,34.59
2022-08-21T15:11:41.247Z,34.43
2022-08-21T15:14:10.755Z,34.07
2022-08-21T15:16:38.505Z,34.47
2022-08-21T15:19:05.826Z,34.25
2022-08-21T15:21:33.222Z,34.10
2022-08-21T15:24:00.514Z,34.02
2022-08-21T15:26:27.732Z,34.76
2022-08-21T15:28:55.069Z,35.66
2022-08-21T15:31:22.318Z,36.73
2022-08-21T15:33:49.717Z,37.71
2022-08-21T15:36:17.216Z,37.15
2022-08-21T15:38:45.557Z,37.79
2022-08-21T15:41:12.919Z,37.18
2022-08-21T15:43:51.957Z,39.07
2022-08-21T15:46:19.926Z,37.99
2022-08-21T15:48:47.574Z,38.35
2022-08-21T15:51:15.311Z,39.34
2022-08-21T15:53:43.063Z,40.53
2022-08-21T15:56:19.014Z,39.73
2022-08-21T15:58:46.293Z,40.06
2022-08-21T16:01:13.696Z,40.93
2022-08-21T16:03:40.999Z,41.13
2022-08-21T16:06:08.337Z,40.83
2022-08-21T16:08:35.836Z,39.88
2022-08-21T16:11:03.134Z,40.62
2022-08-21T16:13:37.083Z,40.99
2022-08-21T16:16:05.712Z,40.70
2022-08-21T16:18:33.118Z,41.59
2022-08-21T16:21:00.358Z,42.89
2022-08-21T16:23:27.765Z,42.46
2022-08-21T16:25:55.177Z,43.41
2022-08-21T16:28:24.738Z,43.12
2022-08-21T16:30:52.028Z,43.26
2022-08-21T16:33:40.696Z,42.74
2022-08-21T16:36:08.939Z,42.87
2022-08-21T16:38:38.217Z,42.88
2022-08-21T16:41:06.992Z,44.20
2022-08-21T16:43:35.724Z,44.25
2022-08-21T16:46:02.973Z,45.17
2022-08-21T16:48:30.315Z,45.61
2022-08-21T16:50:58.541Z,46.04
2022-08-21T16:53:26.795Z,45.14
2022-08-21T16:55:54.142Z,45.79
2022-08-21T16:58:25.655Z,44.62
2022-08-21T17:00:52.920Z,46.11
2022-08-21T17:03:23.092Z,44.31
2022-08-21T17:05:50.575Z,44.78
2022-08-21T17:08:17.990Z,44.63
2022-08-21T17:10:46.992Z,44.42
2022-08-21T17:13:14.549Z,44.85
2022-08-21T17:15:43.371Z,45.30
2022-08-21T17:18:12.664Z,44.92
2022-08-21T17:20:40.298Z,45.19
2022-08-21T17:23:07.940Z,45.79
2022-08-21T17:25:35.261Z,44.41
2022-08-21T17:28:02.811Z,44.51
2022-08-21T17:30:30.195Z,43.69
2022-08-21T17:32:57.695Z,44.16
2022-08-21T17:35:25.054Z,43.33
2022-08-21T17:37:53.606Z,43.75
2022-08-21T17:40:21.055Z,43.67
2022-08-21T17:42:48.709Z,42.78
2022-08-21T17:45:17.596Z,43.53
2022-08-21T17:47:44.890Z,43.14
2022-08-21T17:50:12.877Z,44.08
2022-08-21T17:52:40.392Z,43.44
2022-08-21T17:55:07.996Z,43.53
2022-08-21T17:57:35.553Z,43.37
2022-08-21T18:00:10.130Z,44.81
2022-08-21T18:02:37.769Z,44.03
2022-08-21T18:05:06.284Z,43.67
2022-08-21T18:07:33.662Z,43.70
2022-08-21T18:10:02.066Z,43.04
2022-08-21T18:12:29.981Z,42.63
2022-08-21T18:14:57.254Z,42.82
2022-08-21T18:17:25.064Z,43.02
2022-08-21T18:19:52.321Z,43.07
2022-08-21T18:22:19.719Z,43.35
2022-08-21T18:24:47.153Z,44.31
2022-08-21T18:27:15.175Z,43.73
2022-08-21T18:29:47.049Z,44.45
2022-08-21T18:32:30.739Z,43.33
2022-08-21T18:34:59.549Z,43.73
2022-08-21T18:37:26.865Z,43.93
2022-08-21T18:39:54.200Z,42.69
2022-08-21T18:42:28.527Z,42.82
2022-08-21T18:44:59.382Z,43.73
2022-08-21T18:47:28.897Z,42.97
2022-08-21T18:49:56.550Z,42.59
2022-08-21T18:52:28.442Z,43.51
2022-08-21T18:54:56.034Z,42.27
2022-08-21T18:57:28.307Z,41.66
2022-08-21T18:59:56.168Z,43.63
2022-08-21T19:02:24.114Z,43.13
2022-08-21T19:04:52.306Z,42.81
2022-08-21T19:07:20.510Z,42.83
2022-08-21T19:10:07.586Z,43.25
2022-08-21T19:12:36.856Z,44.66
2022-08-21T19:15:07.562Z,44.12
2022-08-21T19:17:35.586Z,44.71
2022-08-21T19:20:32.757Z,44.84
2022-08-21T19:23:00.934Z,44.47
2022-08-21T19:25:33.931Z,43.94
2022-08-21T19:28:11.439Z,45.47
2022-08-21T19:31:16.426Z,45.24
2022-08-21T19:33:46.190Z,44.68
2022-08-21T19:36:18.718Z,46.04
2022-08-21T19:38:47.310Z,47.86
2022-08-21T19:41:15.311Z,47.66
2022-08-21T19:43:49.853Z,47.74
2022-08-21T19:46:24.069Z,47.18
2022-08-21T19:48:52.622Z,48.97
2022-08-21T19:51:19.956Z,48.85
2022-08-21T19:53:47.485Z,49.34
2022-08-21T19:56:18.048Z,49.37
2022-08-21T19:58:50.039Z,47.99
2022-08-21T20:01:18.407Z,48.25
2022-08-21T20:03:54.187Z,47.61
2022-08-21T20:06:22.210Z,47.00
2022-08-21T20:08:53.329Z,47.67
2022-08-21T20:11:31.510Z,46.72
2022-08-21T20:13:59.238Z,48.02
2022-08-21T20:16:28.462Z,45.46
2022-08-21T20:18:55.812Z,44.91
2022-08-21T20:21:23.582Z,44.43
2022-08-21T20:23:50.861Z,43.21
2022-08-21T20:26:19.155Z,42.71
2022-08-21T20:28:50.520Z,43.16
2022-08-21T20:31:19.694Z,43.92
2022-08-21T20:33:49.461Z,40.25
2022-08-21T20:36:18.179Z,40.21
2022-08-21T20:38:48.051Z,39.73
2022-08-21T20:41:21.484Z,40.47
2022-08-21T20:43:58.343Z,38.71
2022-08-21T20:46:26.296Z,37.95
2022-08-21T20:48:54.706Z,39.43
2022-08-21T20:51:27.483Z,39.18
2022-08-21T20:54:01.133Z,39.09
2022-08-21T20:56:32.884Z,38.04
2022-08-21T20:59:22.161Z,37.39
2022-08-21T21:01:49.415Z,37.83
2022-08-21T21:04:25.865Z,38.34
2022-08-21T21:06:58.868Z,38.62
2022-08-21T21:09:34.746Z,39.30
2022-08-21T21:12:09.525Z,38.70
2022-08-21T21:14:46.127Z,38.98
2022-08-21T21:17:30.572Z,37.49
2022-08-21T21:20:02.398Z,37.64
2022-08-21T21:22:34.678Z,38.75
2022-08-21T21:25:39.747Z,38.36
2022-08-21T21:28:19.936Z,38.73
2022-08-21T21:30:57.672Z,38.46
2022-08-21T21:33:25.319Z,39.16
2022-08-21T21:35:55.395Z,38.83
2022-08-21T21:38:51.844Z,38.79
2022-08-21T21:41:19.479Z,38.62
2022-08-21T21:44:13.115Z,39.10
2022-08-21T21:47:18.795Z,38.82
2022-08-21T21:50:03.140Z,38.89
2022-08-21T21:52:42.518Z,39.07
2022-08-21T21:55:45.606Z,38.79
2022-08-21T21:58:24.806Z,38.94
2022-08-21T22:00:57.719Z,39.45
2022-08-21T22:03:32.204Z,39.60
2022-08-21T22:06:57.137Z,39.82
2022-08-21T22:09:47.026Z,40.13
2022-08-21T22:12:26.415Z,40.16
2022-08-21T22:14:55.246Z,40.24
2022-08-21T22:17:47.653Z,40.31
2022-08-21T22:20:22.883Z,39.55
2022-08-21T22:22:53.096Z,39.62
2022-08-21T22:25:29.050Z,40.12
2022-08-21T22:28:10.618Z,39.41
2022-08-21T22:30:45.316Z,39.22
2022-08-21T22:33:19.972Z,39.39
2022-08-21T22:35:51.665Z,39.21
2022-08-21T22:38:29.862Z,39.91
2022-08-21T22:41:23.309Z,38.93
2022-08-21T22:44:01.610Z,39.36
2022-08-21T22:46:36.553Z,38.71
2022-08-21T22:49:25.232Z,38.58
2022-08-21T22:51:55.980Z,38.52
2022-08-21T22:54:35.078Z,38.05
2022-08-21T22:57:05.153Z,38.62
2022-08-21T22:59:35.286Z,37.99
2022-08-21T23:02:02.491Z,38.63
2022-08-21T23:04:29.896Z,40.12
2022-08-21T23:06:59.940Z,38.67
2022-08-21T23:09:28.382Z,38.67
2022-08-21T23:11:58.675Z,38.74
2022-08-21T23:14:27.831Z,39.42
2022-08-21T23:17:01.474Z,39.02
2022-08-21T23:19:54.093Z,39.27
2022-08-21T23:22:43.237Z,39.03
2022-08-21T23:25:28.889Z,37.47
2022-08-21T23:28:06.180Z,37.96
2022-08-21T23:30:51.839Z,38.06
2022-08-21T23:33:24.897Z,37.51
2022-08-21T23:36:29.846Z,37.11
2022-08-21T23:39:15.837Z,37.13
2022-08-21T23:42:06.230Z,37.23
2022-08-21T23:45:01.149Z,37.48
2022-08-21T23:47:41.535Z,37.51
2022-08-21T23:50:26.735Z,37.49
2022-08-21T23:53:14.374Z,37.33
2022-08-21T23:55:54.634Z,37.00
2022-08-21T23:58:26.342Z,37.09
